Aristidis — V7JD7 — position and weather

sailwx.info

Track history (hours):
 
Tides and Currents Weather Stations Pressure Air Temp Water Temp Dewpoint Dewpoint Depression Visibility Wind Speed Wind Dir Waves Ship Positions

Aristidis

Last reported at 2017-Nov-10 19:18 UTC. Time now 2017-Nov-23 05:53 UTC.
Position N 20°49' E 112°35'.
Warning: this ship's position is 12 days out of date.

Length 184 m; draft 10.3 m.

Type: Tanker. MMSI: 538002499.

Date/timePositionNaut miles runAvg speedWind from/ knotsBaromVisibWave heightAir tempDewpointWater temp
2017-Nov-10 19:18N 20°49' E 112°35'513.8
2017-Nov-10 18:56N 20°51' E 112°40'1313.8
2017-Nov-10 18:00N 20°57' E 112°52'2213.7
2017-Nov-10 16:26N 21°05' E 113°13'6613.8
2017-Nov-10 11:40N 21°31' E 114°18'613.7
2017-Nov-10 11:16N 21°34' E 114°24'5513.6
2017-Nov-10 07:13N 21°51' E 115°20'313.6
2017-Nov-10 07:00N 21°51' E 115°23'913.7
2017-Nov-10 06:20N 21°54' E 115°33'514.0
2017-Nov-10 05:58N 21°54' E 115°39'2513.6
2017-Nov-10 04:07N 21°60' E 116°05'213.7
2017-Nov-10 03:59N 22°01' E 116°07'  
Track history (hours):
 
Tides and Currents Weather Stations Pressure Air Temp Water Temp Dewpoint Dewpoint Depression Visibility Wind Speed Wind Dir Waves Ship Positions

Aristidis

Last reported at 2017-Nov-10 19:18 UTC. Time now 2017-Nov-23 05:53 UTC.
Position N 20°49' E 112°35'.
Warning: this ship's position is 12 days out of date.

Length 184 m; draft 10.3 m.

Type: Tanker. MMSI: 538002499.

Date/timePositionNaut miles runAvg speedWind from/ knotsBaromVisibWave heightAir tempDewpointWater temp
2017-Nov-10 19:18N 20°49' E 112°35'513.8
2017-Nov-10 18:56N 20°51' E 112°40'1313.8
2017-Nov-10 18:00N 20°57' E 112°52'2213.7
2017-Nov-10 16:26N 21°05' E 113°13'6613.8
2017-Nov-10 11:40N 21°31' E 114°18'613.7
2017-Nov-10 11:16N 21°34' E 114°24'5513.6
2017-Nov-10 07:13N 21°51' E 115°20'313.6
2017-Nov-10 07:00N 21°51' E 115°23'913.7
2017-Nov-10 06:20N 21°54' E 115°33'514.0
2017-Nov-10 05:58N 21°54' E 115°39'2513.6
2017-Nov-10 04:07N 21°60' E 116°05'213.7
2017-Nov-10 03:59N 22°01' E 116°07'  

Dump ship's entire track history